createdAt,value
2023-02-22T00:00:44.466Z,80.22
2023-02-22T00:03:25.674Z,79.47
2023-02-22T00:05:58.338Z,78.96
2023-02-22T00:08:30.539Z,76.06
2023-02-22T00:10:58.241Z,76.20
2023-02-22T00:13:24.900Z,74.52
2023-02-22T00:15:51.668Z,73.42
2023-02-22T00:18:19.016Z,73.01
2023-02-22T00:20:46.015Z,74.35
2023-02-22T00:23:19.049Z,75.24
2023-02-22T00:25:46.676Z,74.53
2023-02-22T00:28:15.256Z,72.94
2023-02-22T00:30:45.057Z,73.94
2023-02-22T00:33:15.265Z,71.97
2023-02-22T00:35:44.708Z,71.05
2023-02-22T00:38:11.793Z,71.09
2023-02-22T00:40:40.199Z,72.34
2023-02-22T00:43:06.975Z,74.27
2023-02-22T00:45:34.423Z,74.18
2023-02-22T00:48:01.433Z,72.72
2023-02-22T00:50:29.246Z,72.71
2023-02-22T00:52:56.490Z,71.88
2023-02-22T00:55:25.045Z,72.07
2023-02-22T00:57:51.993Z,72.73
2023-02-22T01:00:27.021Z,71.93
2023-02-22T01:02:53.916Z,72.71
2023-02-22T01:05:22.543Z,72.13
2023-02-22T01:07:49.836Z,74.30
2023-02-22T01:10:19.397Z,74.12
2023-02-22T01:12:47.089Z,72.91
2023-02-22T01:15:13.751Z,73.67
2023-02-22T01:17:41.612Z,73.33
2023-02-22T01:20:12.453Z,73.39
2023-02-22T01:22:43.178Z,72.91
2023-02-22T01:25:10.916Z,73.90
2023-02-22T01:27:38.463Z,73.30
2023-02-22T01:30:09.274Z,75.96
2023-02-22T01:32:36.403Z,76.07
2023-02-22T01:35:08.567Z,76.17
2023-02-22T01:37:35.861Z,75.56
2023-02-22T01:40:04.110Z,76.29
2023-02-22T01:42:30.792Z,75.48
2023-02-22T01:45:31.177Z,74.75
2023-02-22T01:48:08.753Z,74.41
2023-02-22T01:50:38.746Z,74.83
2023-02-22T01:53:05.364Z,75.08
2023-02-22T01:55:32.345Z,75.14
2023-02-22T01:57:59.073Z,74.63
2023-02-22T02:00:27.668Z,75.08
2023-02-22T02:02:59.036Z,76.42
2023-02-22T02:05:31.420Z,75.15
2023-02-22T02:07:58.986Z,74.89
2023-02-22T02:10:26.864Z,73.94
2023-02-22T02:12:53.713Z,72.81
2023-02-22T02:15:23.373Z,73.10
2023-02-22T02:17:51.907Z,73.38
2023-02-22T02:20:41.278Z,73.21
2023-02-22T02:23:29.708Z,73.17
2023-02-22T02:26:17.707Z,73.81
2023-02-22T02:28:56.227Z,75.29
2023-02-22T02:32:20.264Z,74.83
2023-02-22T02:35:21.571Z,75.07
2023-02-22T02:38:09.712Z,74.26
2023-02-22T02:40:41.464Z,74.99
2023-02-22T02:43:17.686Z,73.64
2023-02-22T02:45:54.855Z,75.73
2023-02-22T02:48:23.548Z,77.00
2023-02-22T02:50:50.242Z,76.64
2023-02-22T02:53:21.007Z,75.76
2023-02-22T02:55:47.617Z,76.26
2023-02-22T02:58:20.086Z,77.83
2023-02-22T03:00:46.798Z,78.54
2023-02-22T03:03:42.202Z,78.53
2023-02-22T03:06:34.807Z,79.40
2023-02-22T03:09:19.717Z,77.45
2023-02-22T03:11:51.497Z,77.09
2023-02-22T03:14:24.826Z,76.30
2023-02-22T03:17:04.912Z,76.38
2023-02-22T03:19:38.905Z,76.10
2023-02-22T03:22:16.596Z,75.27
2023-02-22T03:25:15.437Z,73.68
2023-02-22T03:27:53.343Z,75.36
2023-02-22T03:30:26.021Z,76.12
2023-02-22T03:32:55.245Z,77.00
2023-02-22T03:35:30.561Z,76.70
2023-02-22T03:37:58.431Z,76.58
2023-02-22T03:40:31.729Z,77.16
2023-02-22T03:43:07.061Z,77.89
2023-02-22T03:45:33.842Z,77.94
2023-02-22T03:48:26.142Z,77.78
2023-02-22T03:50:52.907Z,76.88
2023-02-22T03:53:19.586Z,76.59
2023-02-22T03:55:47.958Z,78.49
2023-02-22T03:58:14.664Z,79.31
2023-02-22T04:00:44.651Z,79.29
2023-02-22T04:03:11.787Z,79.18
2023-02-22T04:05:58.644Z,79.59
2023-02-22T04:08:25.345Z,78.69
2023-02-22T04:10:52.179Z,79.85
2023-02-22T04:13:19.040Z,79.85
2023-02-22T04:15:45.852Z,77.52
2023-02-22T04:18:12.581Z,79.30
2023-02-22T04:20:39.336Z,80.05
2023-02-22T04:23:05.946Z,80.18
2023-02-22T04:25:33.036Z,80.13
2023-02-22T04:27:59.779Z,79.88
2023-02-22T04:30:26.398Z,79.72
2023-02-22T04:32:53.100Z,78.67
2023-02-22T04:35:19.852Z,79.37
2023-02-22T04:37:46.481Z,78.58
2023-02-22T04:40:13.205Z,77.65
2023-02-22T04:42:40.014Z,77.26
2023-02-22T04:45:08.120Z,77.55
2023-02-22T04:47:35.514Z,76.54
2023-02-22T04:50:02.616Z,77.53
2023-02-22T04:52:29.377Z,77.44
2023-02-22T04:54:56.085Z,77.84
2023-02-22T04:57:22.700Z,78.26
2023-02-22T04:59:51.132Z,78.42
2023-02-22T05:02:18.375Z,78.06
2023-02-22T05:04:45.322Z,77.71
2023-02-22T05:07:12.352Z,76.78
2023-02-22T05:09:39.115Z,77.10
2023-02-22T05:12:06.021Z,78.46
2023-02-22T05:14:32.990Z,78.24
2023-02-22T05:16:59.754Z,78.25
2023-02-22T05:19:26.445Z,76.97
2023-02-22T05:21:53.431Z,76.96
2023-02-22T05:24:20.065Z,76.42
2023-02-22T05:26:46.757Z,77.91
2023-02-22T05:29:13.477Z,77.76
2023-02-22T05:31:41.957Z,78.07
2023-02-22T05:34:08.812Z,77.79
2023-02-22T05:36:35.547Z,78.41
2023-02-22T05:39:02.184Z,78.16
2023-02-22T05:41:28.824Z,76.74
2023-02-22T05:43:55.524Z,76.36
2023-02-22T05:46:22.210Z,77.76
2023-02-22T05:48:48.936Z,78.93
2023-02-22T05:51:15.913Z,78.48
2023-02-22T05:53:43.321Z,77.25
2023-02-22T05:56:09.945Z,77.91
2023-02-22T05:58:36.631Z,77.48
2023-02-22T06:01:03.617Z,76.78
2023-02-22T06:03:30.266Z,78.10
2023-02-22T06:05:58.064Z,78.56
2023-02-22T06:08:24.754Z,77.61
2023-02-22T06:10:51.466Z,78.41
2023-02-22T06:13:18.274Z,78.73
2023-02-22T06:15:44.911Z,79.35
2023-02-22T06:18:11.574Z,79.80
2023-02-22T06:20:38.305Z,79.72
2023-02-22T06:23:04.991Z,81.06
2023-02-22T06:25:31.914Z,80.59
2023-02-22T06:27:59.830Z,80.71
2023-02-22T06:30:26.905Z,80.23
2023-02-22T06:32:53.690Z,80.06
2023-02-22T06:35:20.639Z,79.98
2023-02-22T06:37:47.382Z,79.03
2023-02-22T06:40:14.889Z,78.96
2023-02-22T06:42:41.671Z,78.15
2023-02-22T06:45:08.787Z,78.72
2023-02-22T06:47:41.655Z,76.72
2023-02-22T06:50:18.521Z,75.66
2023-02-22T06:52:45.487Z,75.26
2023-02-22T06:55:12.121Z,75.54
2023-02-22T06:57:38.877Z,74.01
2023-02-22T07:00:07.292Z,72.94
2023-02-22T07:02:33.966Z,72.06
2023-02-22T07:05:00.657Z,71.02
2023-02-22T07:07:27.432Z,71.85
2023-02-22T07:09:54.008Z,72.04
2023-02-22T07:12:20.765Z,71.28
2023-02-22T07:14:47.383Z,71.11
2023-02-22T07:17:13.969Z,71.73
2023-02-22T07:19:40.616Z,71.04
2023-02-22T07:22:07.273Z,72.15
2023-02-22T07:24:35.152Z,72.30
2023-02-22T07:27:02.640Z,72.32
2023-02-22T07:29:29.403Z,72.34
2023-02-22T07:31:56.068Z,72.55
2023-02-22T07:34:22.945Z,72.07
2023-02-22T07:36:49.652Z,71.34
2023-02-22T07:39:16.237Z,71.96
2023-02-22T07:41:42.952Z,70.50
2023-02-22T07:44:09.712Z,69.37
2023-02-22T07:46:36.437Z,70.21
2023-02-22T07:49:03.108Z,70.33
2023-02-22T07:51:29.769Z,69.04
2023-02-22T07:53:56.481Z,67.74
2023-02-22T07:56:23.156Z,65.60
2023-02-22T07:58:49.881Z,64.64
2023-02-22T08:01:16.765Z,64.86
2023-02-22T08:03:43.839Z,64.29
2023-02-22T08:06:10.489Z,63.39
2023-02-22T08:08:37.159Z,62.60
2023-02-22T08:11:04.046Z,62.05
2023-02-22T08:13:30.696Z,61.05
2023-02-22T08:15:57.663Z,60.77
2023-02-22T08:18:24.695Z,59.64
2023-02-22T08:20:52.189Z,59.39
2023-02-22T08:23:19.267Z,58.40
2023-02-22T08:25:45.978Z,58.07
2023-02-22T08:28:15.120Z,56.99
2023-02-22T08:30:44.794Z,56.46
2023-02-22T08:33:14.628Z,53.15
2023-02-22T08:35:41.518Z,53.66
2023-02-22T08:38:08.422Z,51.76
2023-02-22T08:40:36.056Z,50.49
2023-02-22T08:43:02.978Z,51.12
2023-02-22T08:45:29.770Z,48.32
2023-02-22T08:47:57.762Z,48.10
2023-02-22T08:50:26.498Z,45.18
2023-02-22T08:52:58.695Z,46.98
2023-02-22T08:55:26.711Z,44.27
2023-02-22T08:57:53.651Z,44.97
2023-02-22T09:00:26.113Z,44.45
2023-02-22T09:02:52.880Z,44.13
2023-02-22T09:05:19.615Z,42.97
2023-02-22T09:07:46.358Z,41.73
2023-02-22T09:10:15.512Z,41.52
2023-02-22T09:12:42.712Z,39.86
2023-02-22T09:15:09.731Z,39.03
2023-02-22T09:17:37.436Z,39.46
2023-02-22T09:20:05.735Z,38.67
2023-02-22T09:22:32.441Z,38.59
2023-02-22T09:25:02.571Z,36.65
2023-02-22T09:27:34.657Z,37.05
2023-02-22T09:30:01.387Z,36.98
2023-02-22T09:32:28.266Z,39.50
2023-02-22T09:34:55.768Z,38.92
2023-02-22T09:37:22.489Z,39.92
2023-02-22T09:39:49.301Z,39.52
2023-02-22T09:42:15.925Z,39.21
2023-02-22T09:44:54.807Z,38.91
2023-02-22T09:47:38.915Z,38.54
2023-02-22T09:50:26.779Z,37.68
2023-02-22T09:53:05.398Z,35.38
2023-02-22T09:55:38.352Z,34.23
2023-02-22T09:58:23.766Z,33.66
2023-02-22T10:00:54.016Z,35.49
2023-02-22T10:03:28.539Z,35.88
2023-02-22T10:06:03.183Z,35.91
2023-02-22T10:08:33.276Z,35.55
2023-02-22T10:11:12.816Z,35.44
2023-02-22T10:13:58.205Z,35.75
2023-02-22T10:16:54.479Z,34.42
2023-02-22T10:19:21.080Z,34.30
2023-02-22T10:21:54.347Z,34.39
2023-02-22T10:24:45.632Z,34.87
2023-02-22T10:27:18.179Z,35.35
2023-02-22T10:29:48.359Z,34.24
2023-02-22T10:32:19.148Z,33.90
2023-02-22T10:34:51.560Z,33.84
2023-02-22T10:37:23.793Z,33.68
2023-02-22T10:39:50.528Z,32.96
2023-02-22T10:42:17.236Z,32.43
2023-02-22T10:44:43.971Z,31.70
2023-02-22T10:47:11.503Z,32.52
2023-02-22T10:49:44.263Z,32.22
2023-02-22T10:52:19.001Z,32.32
2023-02-22T10:54:46.856Z,31.66
2023-02-22T10:57:13.654Z,32.66
2023-02-22T10:59:42.059Z,31.39
2023-02-22T11:02:29.548Z,31.99
2023-02-22T11:04:59.410Z,32.07
2023-02-22T11:07:30.955Z,32.32
2023-02-22T11:10:05.534Z,31.12
2023-02-22T11:12:33.442Z,30.65
2023-02-22T11:15:22.325Z,31.44
2023-02-22T11:17:52.647Z,30.75
2023-02-22T11:20:25.828Z,31.49
2023-02-22T11:22:54.743Z,31.82
2023-02-22T11:25:23.421Z,34.03
2023-02-22T11:27:50.129Z,31.87
2023-02-22T11:30:29.582Z,30.29
2023-02-22T11:33:03.211Z,31.14
2023-02-22T11:35:31.243Z,30.79
2023-02-22T11:38:17.378Z,30.52
2023-02-22T11:40:44.901Z,30.45
2023-02-22T11:43:16.937Z,31.16
2023-02-22T11:46:03.072Z,30.72
2023-02-22T11:48:34.907Z,30.57
2023-02-22T11:51:16.905Z,30.71
2023-02-22T11:54:19.532Z,30.51
2023-02-22T11:56:48.248Z,30.47
2023-02-22T11:59:34.418Z,30.89
2023-02-22T12:02:19.741Z,29.90
2023-02-22T12:04:57.990Z,30.05
2023-02-22T12:07:30.846Z,29.17
2023-02-22T12:09:57.397Z,29.69
2023-02-22T12:12:51.286Z,30.14
2023-02-22T12:15:42.853Z,30.56
2023-02-22T12:18:24.877Z,30.09
2023-02-22T12:20:56.921Z,30.03
2023-02-22T12:24:04.025Z,30.10
2023-02-22T12:26:36.570Z,30.15
2023-02-22T12:29:27.750Z,31.80
2023-02-22T12:32:05.401Z,29.93
2023-02-22T12:34:56.359Z,30.45
2023-02-22T12:37:24.792Z,30.75
2023-02-22T12:40:09.669Z,31.32
2023-02-22T12:42:51.095Z,30.51
2023-02-22T12:45:30.618Z,30.69
2023-02-22T12:48:21.607Z,31.36
2023-02-22T12:50:49.887Z,31.29
2023-02-22T12:53:31.457Z,31.16
2023-02-22T12:56:19.858Z,30.85
2023-02-22T12:59:02.963Z,31.50
2023-02-22T13:01:34.853Z,31.56
2023-02-22T13:04:19.519Z,31.44
2023-02-22T13:07:11.638Z,32.46
2023-02-22T13:09:59.992Z,33.00
2023-02-22T13:12:35.909Z,31.63
2023-02-22T13:15:11.059Z,31.99
2023-02-22T13:18:16.341Z,32.04
2023-02-22T13:21:01.605Z,32.50
2023-02-22T13:23:34.156Z,32.31
2023-02-22T13:26:12.601Z,33.02
2023-02-22T13:28:43.530Z,33.08
2023-02-22T13:31:36.257Z,33.16
2023-02-22T13:34:16.736Z,32.56
2023-02-22T13:36:58.123Z,33.21
2023-02-22T13:40:06.788Z,32.67
2023-02-22T13:43:02.417Z,33.12
2023-02-22T13:45:31.711Z,33.91
2023-02-22T13:48:19.303Z,33.23
2023-02-22T13:50:55.401Z,33.55
2023-02-22T13:53:25.241Z,34.00
2023-02-22T13:55:54.112Z,34.48
2023-02-22T13:58:21.237Z,36.06
2023-02-22T14:00:50.247Z,32.98
2023-02-22T14:03:30.142Z,32.06
2023-02-22T14:06:00.937Z,31.51
2023-02-22T14:08:31.666Z,32.99
2023-02-22T14:11:01.888Z,32.07
2023-02-22T14:13:53.777Z,32.09
2023-02-22T14:16:25.359Z,32.40
2023-02-22T14:19:14.449Z,32.55
2023-02-22T14:22:04.484Z,32.76
2023-02-22T14:24:44.703Z,32.87
2023-02-22T14:27:11.331Z,33.86
2023-02-22T14:29:37.986Z,33.99
2023-02-22T14:32:10.546Z,35.91
2023-02-22T14:34:58.221Z,35.96
2023-02-22T14:37:29.672Z,35.88
2023-02-22T14:40:26.442Z,35.98
2023-02-22T14:43:01.989Z,37.44
2023-02-22T14:45:33.359Z,35.96
2023-02-22T14:48:11.629Z,35.74
2023-02-22T14:50:41.277Z,33.87
2023-02-22T14:53:12.897Z,34.34
2023-02-22T14:55:43.957Z,35.42
2023-02-22T14:58:18.686Z,34.85
2023-02-22T15:00:47.198Z,36.12
2023-02-22T15:03:37.566Z,35.04
2023-02-22T15:06:20.367Z,35.79
2023-02-22T15:08:50.057Z,36.25
2023-02-22T15:11:32.712Z,36.25
2023-02-22T15:14:00.273Z,35.39
2023-02-22T15:16:28.738Z,35.34
2023-02-22T15:19:00.001Z,35.67
2023-02-22T15:21:28.006Z,36.72
2023-02-22T15:23:58.242Z,37.73
2023-02-22T15:26:59.016Z,37.22
2023-02-22T15:29:33.412Z,37.63
2023-02-22T15:32:00.197Z,37.83
2023-02-22T15:34:31.423Z,38.19
2023-02-22T15:37:06.508Z,37.60
2023-02-22T15:39:34.603Z,37.90
2023-02-22T15:42:23.088Z,37.55
2023-02-22T15:44:54.872Z,38.22
2023-02-22T15:47:27.421Z,39.03
2023-02-22T15:50:23.723Z,39.26
2023-02-22T15:52:58.209Z,42.21
2023-02-22T15:55:27.708Z,43.67
2023-02-22T15:57:54.455Z,44.65
2023-02-22T16:00:36.049Z,45.39
2023-02-22T16:03:04.735Z,46.10
2023-02-22T16:05:47.261Z,46.89
2023-02-22T16:08:26.085Z,47.23
2023-02-22T16:11:05.251Z,48.89
2023-02-22T16:13:35.461Z,49.41
2023-02-22T16:16:22.493Z,49.77
2023-02-22T16:18:49.622Z,50.05
2023-02-22T16:21:21.829Z,49.68
2023-02-22T16:23:59.121Z,48.76
2023-02-22T16:26:32.466Z,47.68
2023-02-22T16:29:09.217Z,47.89
2023-02-22T16:31:39.639Z,48.10
2023-02-22T16:34:07.573Z,49.05
2023-02-22T16:36:52.482Z,49.64
2023-02-22T16:39:37.417Z,50.43
2023-02-22T16:42:05.107Z,52.06
2023-02-22T16:44:31.738Z,52.01
2023-02-22T16:46:59.402Z,51.66
2023-02-22T16:49:26.055Z,51.25
2023-02-22T16:51:59.619Z,50.07
2023-02-22T16:54:27.339Z,50.21
2023-02-22T16:56:55.808Z,51.21
2023-02-22T16:59:22.499Z,49.20
2023-02-22T17:01:49.299Z,49.72
2023-02-22T17:04:21.207Z,50.40
2023-02-22T17:06:48.124Z,51.90
2023-02-22T17:09:15.581Z,51.78
2023-02-22T17:11:42.629Z,52.37
2023-02-22T17:14:10.463Z,53.58
2023-02-22T17:16:37.095Z,55.35
2023-02-22T17:19:05.148Z,55.56
2023-02-22T17:21:31.907Z,54.85
2023-02-22T17:23:58.558Z,54.95
2023-02-22T17:26:26.275Z,54.87
2023-02-22T17:28:53.125Z,54.06
2023-02-22T17:31:21.877Z,54.30
2023-02-22T17:33:48.893Z,54.75
2023-02-22T17:36:16.078Z,55.53
2023-02-22T17:38:43.272Z,55.76
2023-02-22T17:41:09.902Z,56.54
2023-02-22T17:43:36.763Z,55.88
2023-02-22T17:46:08.046Z,56.81
2023-02-22T17:48:35.251Z,56.68
2023-02-22T17:51:06.163Z,58.18
2023-02-22T17:53:33.258Z,58.34
2023-02-22T17:56:04.685Z,57.78
2023-02-22T17:58:31.431Z,57.45
2023-02-22T18:00:59.318Z,57.87
2023-02-22T18:03:26.550Z,59.13
2023-02-22T18:05:56.212Z,59.36
2023-02-22T18:08:26.239Z,59.31
2023-02-22T18:10:56.361Z,59.34
2023-02-22T18:13:24.428Z,59.30
2023-02-22T18:15:51.211Z,60.01
2023-02-22T18:18:18.072Z,60.39
2023-02-22T18:20:46.555Z,59.78
2023-02-22T18:23:19.479Z,60.22
2023-02-22T18:26:07.615Z,60.40
2023-02-22T18:28:36.330Z,61.00
2023-02-22T18:31:07.311Z,62.53
2023-02-22T18:33:34.115Z,62.18
2023-02-22T18:36:00.783Z,63.57
2023-02-22T18:38:27.454Z,62.69
2023-02-22T18:41:06.526Z,62.44
2023-02-22T18:43:35.273Z,63.75
2023-02-22T18:46:21.518Z,63.95
2023-02-22T18:48:49.053Z,63.92
2023-02-22T18:51:17.143Z,62.24
2023-02-22T18:53:47.154Z,63.18
2023-02-22T18:56:21.842Z,62.79
2023-02-22T18:58:52.412Z,63.37
2023-02-22T19:01:19.309Z,62.34
2023-02-22T19:03:48.975Z,61.69
2023-02-22T19:06:17.480Z,62.27
2023-02-22T19:08:44.833Z,62.48
2023-02-22T19:11:17.957Z,62.47
2023-02-22T19:13:46.448Z,62.85
2023-02-22T19:16:13.264Z,64.05
2023-02-22T19:18:40.009Z,64.28
2023-02-22T19:21:08.695Z,63.26
2023-02-22T19:23:37.466Z,63.63
2023-02-22T19:26:04.884Z,65.51
2023-02-22T19:28:34.323Z,66.52
2023-02-22T19:31:14.968Z,65.97
2023-02-22T19:33:41.856Z,66.22
2023-02-22T19:36:09.274Z,65.69
2023-02-22T19:38:36.088Z,65.80
2023-02-22T19:41:12.607Z,66.00
2023-02-22T19:43:39.494Z,67.08
2023-02-22T19:46:06.474Z,67.89
2023-02-22T19:48:33.275Z,67.48
2023-02-22T19:51:06.815Z,67.05
2023-02-22T19:53:39.100Z,66.56
2023-02-22T19:56:10.775Z,66.57
2023-02-22T19:58:58.533Z,67.34
2023-02-22T20:01:30.387Z,67.33
2023-02-22T20:04:00.999Z,66.55
2023-02-22T20:06:29.067Z,66.44
2023-02-22T20:08:56.117Z,67.65
2023-02-22T20:11:23.426Z,67.46
2023-02-22T20:13:50.123Z,68.02
2023-02-22T20:16:17.131Z,66.85
2023-02-22T20:18:44.706Z,68.09
2023-02-22T20:21:14.020Z,68.17
2023-02-22T20:23:44.286Z,67.70
2023-02-22T20:26:30.527Z,68.39
2023-02-22T20:28:59.286Z,68.36
2023-02-22T20:31:26.220Z,69.20
2023-02-22T20:33:54.154Z,68.21
2023-02-22T20:36:22.228Z,68.36
2023-02-22T20:38:51.463Z,67.72
2023-02-22T20:41:29.682Z,67.01
2023-02-22T20:43:56.549Z,66.60
2023-02-22T20:46:24.076Z,66.52
2023-02-22T20:48:58.411Z,67.30
2023-02-22T20:51:25.604Z,67.75
2023-02-22T20:53:52.424Z,67.60
2023-02-22T20:56:21.051Z,67.45
2023-02-22T20:58:47.891Z,67.46
2023-02-22T21:01:17.179Z,68.75
2023-02-22T21:03:44.193Z,69.02
2023-02-22T21:06:14.989Z,68.56
2023-02-22T21:08:45.748Z,70.18
2023-02-22T21:11:13.261Z,72.10
2023-02-22T21:13:40.528Z,72.00
2023-02-22T21:16:07.825Z,71.51
2023-02-22T21:18:34.507Z,72.14
2023-02-22T21:21:12.436Z,70.98
2023-02-22T21:23:40.207Z,71.71
2023-02-22T21:26:07.412Z,72.58
2023-02-22T21:28:53.132Z,73.20
2023-02-22T21:31:24.376Z,73.37
2023-02-22T21:33:52.985Z,73.40
2023-02-22T21:36:20.081Z,74.13
2023-02-22T21:38:49.016Z,73.25
2023-02-22T21:41:16.837Z,72.69
2023-02-22T21:43:43.900Z,72.42
2023-02-22T21:46:10.838Z,72.94
2023-02-22T21:48:45.128Z,72.15
2023-02-22T21:51:13.936Z,72.87
2023-02-22T21:53:47.881Z,73.17
2023-02-22T21:56:15.641Z,73.70
2023-02-22T21:58:46.042Z,73.65
2023-02-22T22:01:17.384Z,73.88
2023-02-22T22:03:45.167Z,73.95
2023-02-22T22:06:13.676Z,72.67
2023-02-22T22:08:41.272Z,72.52
2023-02-22T22:11:09.398Z,73.19
2023-02-22T22:13:37.733Z,72.20
2023-02-22T22:16:06.240Z,72.96
2023-02-22T22:18:32.909Z,72.52
2023-02-22T22:20:59.794Z,73.42
2023-02-22T22:23:26.596Z,73.62
2023-02-22T22:26:02.112Z,73.00
2023-02-22T22:28:28.812Z,75.62
2023-02-22T22:30:55.563Z,75.03
2023-02-22T22:33:22.470Z,74.41
2023-02-22T22:35:49.252Z,75.14
2023-02-22T22:38:15.886Z,74.80
2023-02-22T22:40:42.545Z,75.84
2023-02-22T22:43:09.158Z,79.31
2023-02-22T22:45:35.843Z,78.03
2023-02-22T22:48:04.750Z,76.37
2023-02-22T22:50:31.509Z,75.61
2023-02-22T22:52:58.215Z,76.44
2023-02-22T22:55:24.939Z,74.57
2023-02-22T22:57:54.281Z,74.71
2023-02-22T23:00:34.886Z,76.54
2023-02-22T23:03:01.702Z,76.78
2023-02-22T23:05:29.299Z,75.84
2023-02-22T23:07:56.431Z,76.42
2023-02-22T23:10:27.297Z,75.73
2023-02-22T23:12:55.508Z,77.34
2023-02-22T23:15:24.522Z,77.50
2023-02-22T23:17:56.038Z,78.21
2023-02-22T23:20:26.222Z,78.54
2023-02-22T23:22:53.845Z,78.99
2023-02-22T23:25:21.065Z,79.76
2023-02-22T23:27:48.223Z,78.89
2023-02-22T23:30:18.641Z,81.65
2023-02-22T23:32:46.779Z,81.72
2023-02-22T23:35:14.911Z,80.07
2023-02-22T23:37:42.349Z,78.70
2023-02-22T23:40:16.957Z,78.59
2023-02-22T23:42:48.851Z,80.74
2023-02-22T23:45:22.822Z,81.50
2023-02-22T23:47:54.868Z,84.33
2023-02-22T23:50:25.527Z,84.25
2023-02-22T23:52:59.577Z,84.60
2023-02-22T23:55:26.610Z,82.33
2023-02-22T23:57:59.331Z,81.33
